Time;durP1;ratioP1;P1;durP2;ratioP2;P2;SDS_P1;SDS_P2;PMS_P1;PMS_P2;Temp;Humidity;BMP_temperature;BMP_pressure;BME280_temperature;BME280_humidity;BME280_pressure;Samples;Min_cycle;Max_cycle;Signal;HPM_P1;HPM_P2
2024/01/20 00:00:11;;;;;;;0.10;0.10;;;;;;;;;;5055763;28;20092;-80
2024/01/20 00:02:40;;;;;;;0.10;0.10;;;;;;;;;;5041261;28;20102;-80
2024/01/20 00:05:09;;;;;;;0.10;0.10;;;;;;;;;;5054238;28;20054;-80
2024/01/20 00:07:37;;;;;;;0.10;0.10;;;;;;;;;;5036063;28;20810;-80
2024/01/20 00:10:12;;;;;;;0.10;0.10;;;;;;;;;;5042115;28;20229;-80
2024/01/20 00:12:42;;;;;;;0.10;0.10;;;;;;;;;;5036125;28;20105;-80
2024/01/20 00:15:10;;;;;;;;;;;;;;;;;;5058866;28;20045;-80
2024/01/20 00:17:38;;;;;;;0.10;0.10;;;;;;;;;;5041062;28;44820;-80
2024/01/20 00:20:05;;;;;;;0.10;0.10;;;;;;;;;;5045690;28;20092;-79
2024/01/20 00:22:32;;;;;;;0.10;0.10;;;;;;;;;;5039862;28;20084;-80
2024/01/20 00:25:00;;;;;;;0.10;0.10;;;;;;;;;;5041098;28;20150;-80
2024/01/20 00:27:30;;;;;;;0.10;0.10;;;;;;;;;;5044589;28;20067;-80
2024/01/20 00:30:00;;;;;;;0.10;0.10;;;;;;;;;;5044086;28;20108;-80
2024/01/20 00:32:28;;;;;;;0.10;0.10;;;;;;;;;;5046146;28;20057;-80
2024/01/20 00:34:55;;;;;;;0.10;0.10;;;;;;;;;;5041002;28;20045;-80
2024/01/20 00:37:33;;;;;;;0.10;0.10;;;;;;;;;;5046770;28;20038;-79
2024/01/20 00:40:01;;;;;;;7.05;2.38;;;;;;;;;;5045375;28;20053;-80
2024/01/20 00:42:31;;;;;;;0.10;0.10;;;;;;;;;;5055189;28;20414;-80
2024/01/20 00:44:57;;;;;;;0.45;0.45;;;;;;;;;;5056066;28;20070;-80
2024/01/20 00:47:24;;;;;;;0.10;0.10;;;;;;;;;;5040027;28;20092;-80
2024/01/20 00:49:51;;;;;;;3.60;3.40;;;;;;;;;;5058134;28;20049;-79
2024/01/20 00:52:17;;;;;;;0.40;0.40;;;;;;;;;;5040636;28;20177;-80
2024/01/20 00:54:43;;;;;;;0.10;0.10;;;;;;;;;;5040222;28;20148;-79
2024/01/20 00:57:10;;;;;;;0.75;0.75;;;;;;;;;;5037174;28;20057;-80
2024/01/20 00:59:37;;;;;;;0.10;0.10;;;;;;;;;;5038036;28;20057;-80
2024/01/20 01:02:03;;;;;;;0.20;0.20;;;;;;;;;;5042559;28;20763;-80
2024/01/20 01:04:30;;;;;;;0.10;0.10;;;;;;;;;;5044177;28;20063;-80
2024/01/20 01:06:56;;;;;;;0.10;0.10;;;;;;;;;;5036190;28;20835;-79
2024/01/20 01:09:23;;;;;;;3.97;3.83;;;;;;;;;;5034716;28;20054;-79
2024/01/20 01:11:49;;;;;;;0.10;0.10;;;;;;;;;;5052920;28;20144;-79
2024/01/20 01:14:16;;;;;;;0.10;0.10;;;;;;;;;;5028766;28;20045;-79
2024/01/20 01:16:42;;;;;;;0.10;0.10;;;;;;;;;;5037820;28;20060;-79
2024/01/20 01:19:09;;;;;;;0.10;0.10;;;;;;;;;;5042989;28;20057;-80
2024/01/20 01:21:35;;;;;;;0.20;0.20;;;;;;;;;;5037167;28;20107;-79
2024/01/20 01:24:02;;;;;;;0.00;0.00;;;;;;;;;;5038202;28;20050;-79
2024/01/20 01:26:28;;;;;;;0.10;0.10;;;;;;;;;;5035396;28;20155;-79
2024/01/20 01:28:58;;;;;;;0.10;0.10;;;;;;;;;;5058151;28;20076;-80
2024/01/20 01:31:25;;;;;;;0.00;0.00;;;;;;;;;;5053783;28;20868;-80
2024/01/20 01:33:51;;;;;;;0.10;0.10;;;;;;;;;;5041812;28;20156;-79
2024/01/20 01:36:19;;;;;;;0.10;0.10;;;;;;;;;;5032457;28;20049;-79
2024/01/20 01:38:45;;;;;;;3.72;3.53;;;;;;;;;;5033726;28;20061;-80
2024/01/20 01:41:12;;;;;;;0.85;0.85;;;;;;;;;;5039261;28;20929;-79
2024/01/20 01:43:39;;;;;;;0.10;0.10;;;;;;;;;;5055825;28;20038;-79
2024/01/20 01:46:05;;;;;;;0.10;0.10;;;;;;;;;;5038398;28;20143;-80
2024/01/20 01:48:33;;;;;;;0.10;0.10;;;;;;;;;;5128842;22;20077;-77
2024/01/20 01:51:02;;;;;;;0.10;0.10;;;;;;;;;;5051966;28;20099;-77
2024/01/20 01:53:29;;;;;;;0.10;0.10;;;;;;;;;;5043508;28;20570;-77
2024/01/20 01:55:55;;;;;;;0.10;0.10;;;;;;;;;;5030306;28;20056;-77
2024/01/20 01:58:22;;;;;;;0.10;0.10;;;;;;;;;;5044153;28;20061;-77
2024/01/20 02:00:48;;;;;;;0.10;0.10;;;;;;;;;;5047834;28;20561;-76
2024/01/20 02:03:15;;;;;;;0.10;0.10;;;;;;;;;;5048671;28;20180;-76
2024/01/20 02:05:42;;;;;;;0.10;0.10;;;;;;;;;;5047309;28;20108;-77
2024/01/20 02:08:09;;;;;;;4.57;3.13;;;;;;;;;;5047637;28;20053;-77
2024/01/20 02:10:37;;;;;;;0.10;0.10;;;;;;;;;;5048356;28;20141;-76
2024/01/20 02:13:03;;;;;;;3.20;3.00;;;;;;;;;;5048899;28;20107;-76
2024/01/20 02:15:30;;;;;;;0.10;0.10;;;;;;;;;;5044652;28;20049;-77
2024/01/20 02:17:57;;;;;;;0.10;0.10;;;;;;;;;;5047899;28;20065;-77
2024/01/20 02:20:23;;;;;;;0.10;0.10;;;;;;;;;;5048647;28;20517;-76
2024/01/20 02:22:50;;;;;;;0.10;0.10;;;;;;;;;;5043408;28;20085;-77
2024/01/20 02:25:17;;;;;;;0.10;0.10;;;;;;;;;;5048341;28;20526;-77
2024/01/20 02:27:43;;;;;;;0.40;0.38;;;;;;;;;;5048032;28;20045;-77
2024/01/20 02:30:10;;;;;;;1.10;0.85;;;;;;;;;;5026399;28;20053;-77
2024/01/20 02:32:36;;;;;;;0.10;0.10;;;;;;;;;;5035747;28;20088;-77
2024/01/20 02:35:03;;;;;;;0.10;0.10;;;;;;;;;;5036688;28;20053;-76
2024/01/20 02:37:30;;;;;;;0.10;0.10;;;;;;;;;;5046971;28;20064;-77
2024/01/20 02:39:57;;;;;;;0.10;0.10;;;;;;;;;;5048157;28;20064;-77
2024/01/20 02:42:23;;;;;;;0.20;0.20;;;;;;;;;;5048116;28;20045;-77
2024/01/20 02:44:50;;;;;;;0.10;0.10;;;;;;;;;;5047946;28;20068;-76
2024/01/20 02:47:18;;;;;;;0.10;0.10;;;;;;;;;;5047493;28;20054;-76
2024/01/20 02:49:44;;;;;;;0.10;0.10;;;;;;;;;;5047663;28;20100;-77
2024/01/20 02:52:10;;;;;;;0.10;0.10;;;;;;;;;;5047883;28;20060;-77
2024/01/20 02:54:37;;;;;;;0.30;0.30;;;;;;;;;;5045596;28;20140;-76
2024/01/20 02:57:03;;;;;;;0.10;0.10;;;;;;;;;;5047285;28;20057;-77
2024/01/20 02:59:30;;;;;;;0.10;0.10;;;;;;;;;;5047163;28;20500;-76
2024/01/20 03:01:58;;;;;;;0.10;0.10;;;;;;;;;;5047895;28;20129;-77
2024/01/20 03:04:24;;;;;;;0.10;0.10;;;;;;;;;;5048542;28;20607;-76
2024/01/20 03:06:50;;;;;;;0.10;0.10;;;;;;;;;;5047912;28;20056;-76
2024/01/20 03:09:17;;;;;;;0.15;0.15;;;;;;;;;;5047532;28;20058;-76
2024/01/20 03:11:43;;;;;;;0.10;0.10;;;;;;;;;;5044248;28;21010;-76
2024/01/20 03:14:10;;;;;;;0.10;0.10;;;;;;;;;;5044734;28;20052;-76
2024/01/20 03:16:37;;;;;;;0.10;0.10;;;;;;;;;;5047405;28;20053;-76
2024/01/20 03:19:04;;;;;;;0.10;0.10;;;;;;;;;;5047620;28;20474;-76
2024/01/20 03:21:30;;;;;;;0.10;0.10;;;;;;;;;;5047370;28;20056;-75
2024/01/20 03:23:57;;;;;;;0.10;0.10;;;;;;;;;;5048007;28;20562;-75
2024/01/20 03:26:23;;;;;;;0.10;0.10;;;;;;;;;;5046714;28;20067;-75
2024/01/20 03:28:50;;;;;;;2.00;1.90;;;;;;;;;;5028843;28;20057;-75
2024/01/20 03:31:17;;;;;;;0.10;0.10;;;;;;;;;;5047603;28;20057;-75
2024/01/20 03:33:43;;;;;;;0.10;0.10;;;;;;;;;;5047715;28;20049;-75
2024/01/20 03:36:11;;;;;;;0.10;0.10;;;;;;;;;;5046700;28;20499;-75
2024/01/20 03:38:37;;;;;;;0.85;0.85;;;;;;;;;;5040107;28;20053;-75
2024/01/20 03:41:03;;;;;;;0.10;0.10;;;;;;;;;;5029500;28;20046;-78
2024/01/20 03:43:30;;;;;;;0.57;0.57;;;;;;;;;;5030063;28;20483;-78
2024/01/20 03:45:56;;;;;;;0.03;0.03;;;;;;;;;;5020924;28;20060;-78
2024/01/20 03:48:23;;;;;;;0.10;0.10;;;;;;;;;;5047271;28;20506;-75
2024/01/20 03:50:49;;;;;;;0.10;0.10;;;;;;;;;;5046829;28;20056;-75
2024/01/20 03:53:16;;;;;;;0.10;0.10;;;;;;;;;;5042880;28;20053;-75
2024/01/20 03:55:42;;;;;;;0.10;0.10;;;;;;;;;;5043145;28;20462;-75
2024/01/20 03:58:09;;;;;;;0.10;0.10;;;;;;;;;;5040901;28;20058;-75
2024/01/20 04:00:35;;;;;;;1.70;1.58;;;;;;;;;;5015500;28;20050;-75
2024/01/20 04:03:02;;;;;;;0.10;0.10;;;;;;;;;;5035527;28;20062;-75
2024/01/20 04:05:29;;;;;;;0.90;0.90;;;;;;;;;;5044283;28;20115;-75
2024/01/20 04:07:55;;;;;;;0.10;0.10;;;;;;;;;;5040644;28;20057;-75
2024/01/20 04:10:22;;;;;;;0.10;0.10;;;;;;;;;;5036970;28;20074;-75
2024/01/20 04:12:48;;;;;;;0.10;0.10;;;;;;;;;;5035540;28;20054;-75
2024/01/20 04:15:15;;;;;;;0.08;0.08;;;;;;;;;;5043540;28;20053;-75
2024/01/20 04:17:41;;;;;;;0.10;0.10;;;;;;;;;;5042414;28;20053;-75
2024/01/20 04:20:08;;;;;;;0.10;0.10;;;;;;;;;;5040103;28;20547;-75
2024/01/20 04:22:34;;;;;;;0.10;0.10;;;;;;;;;;5037434;28;20061;-75
2024/01/20 04:25:01;;;;;;;0.10;0.10;;;;;;;;;;5045454;28;20081;-75
2024/01/20 04:27:27;;;;;;;0.00;0.00;;;;;;;;;;5044194;28;20049;-75
2024/01/20 04:29:54;;;;;;;0.10;0.10;;;;;;;;;;5042997;28;20085;-75
2024/01/20 04:32:20;;;;;;;0.10;0.10;;;;;;;;;;5036027;28;20136;-75
2024/01/20 04:34:47;;;;;;;0.10;0.10;;;;;;;;;;5041166;28;20124;-75
2024/01/20 04:37:13;;;;;;;0.10;0.10;;;;;;;;;;5034154;28;20049;-75
2024/01/20 04:39:39;;;;;;;0.10;0.10;;;;;;;;;;5043260;28;20053;-75
2024/01/20 04:42:07;;;;;;;0.20;0.20;;;;;;;;;;5040248;28;20053;-75
2024/01/20 04:44:34;;;;;;;0.10;0.10;;;;;;;;;;5041864;28;20053;-75
2024/01/20 04:47:00;;;;;;;0.10;0.10;;;;;;;;;;5035251;28;20471;-75
2024/01/20 04:49:27;;;;;;;0.20;0.20;;;;;;;;;;5041842;28;20164;-75
2024/01/20 04:51:54;;;;;;;0.10;0.10;;;;;;;;;;5025702;28;20058;-78
2024/01/20 04:54:23;;;;;;;0.10;0.10;;;;;;;;;;5044103;28;20136;-75
2024/01/20 04:56:49;;;;;;;0.10;0.10;;;;;;;;;;5030681;28;20149;-75
2024/01/20 04:59:15;;;;;;;0.10;0.10;;;;;;;;;;5043447;28;20053;-75
2024/01/20 05:01:42;;;;;;;0.10;0.10;;;;;;;;;;5045798;28;20058;-75
2024/01/20 05:04:08;;;;;;;0.10;0.10;;;;;;;;;;5047513;28;20054;-77
2024/01/20 05:06:35;;;;;;;0.15;0.15;;;;;;;;;;5047103;28;20069;-75
2024/01/20 05:09:02;;;;;;;0.55;0.55;;;;;;;;;;5041693;28;20958;-75
2024/01/20 05:11:28;;;;;;;0.10;0.10;;;;;;;;;;5040333;28;20111;-75
2024/01/20 05:13:55;;;;;;;0.10;0.10;;;;;;;;;;5049410;28;20050;-75
2024/01/20 05:16:21;;;;;;;0.10;0.10;;;;;;;;;;5045659;28;20500;-75
2024/01/20 05:18:48;;;;;;;2.15;2.05;;;;;;;;;;5040880;28;20050;-75
2024/01/20 05:21:15;;;;;;;0.10;0.10;;;;;;;;;;5034920;28;20522;-75
2024/01/20 05:23:41;;;;;;;0.10;0.10;;;;;;;;;;5047813;28;20108;-75
2024/01/20 05:26:08;;;;;;;0.10;0.10;;;;;;;;;;5025996;28;20545;-75
2024/01/20 05:28:34;;;;;;;0.25;0.25;;;;;;;;;;5044187;28;20057;-75
2024/01/20 05:31:00;;;;;;;0.00;0.00;;;;;;;;;;5039295;28;20054;-75
2024/01/20 05:33:27;;;;;;;21.25;5.25;;;;;;;;;;5044901;28;20101;-75
2024/01/20 05:35:56;;;;;;;0.10;0.10;;;;;;;;;;5039473;28;20057;-75
2024/01/20 05:38:22;;;;;;;0.10;0.10;;;;;;;;;;5049930;28;20057;-75
2024/01/20 05:40:48;;;;;;;0.10;0.10;;;;;;;;;;5049888;28;20132;-75
2024/01/20 05:43:15;;;;;;;0.75;0.75;;;;;;;;;;5049332;28;20061;-75
2024/01/20 05:45:41;;;;;;;0.10;0.10;;;;;;;;;;5048509;28;20923;-75
2024/01/20 05:48:08;;;;;;;0.20;0.20;;;;;;;;;;5048320;28;20053;-76
2024/01/20 05:50:34;;;;;;;0.10;0.10;;;;;;;;;;5047996;28;20063;-76
2024/01/20 05:53:01;;;;;;;0.10;0.10;;;;;;;;;;5046008;28;20507;-76
2024/01/20 05:55:28;;;;;;;0.10;0.10;;;;;;;;;;5049026;28;20107;-76
2024/01/20 05:57:54;;;;;;;0.10;0.10;;;;;;;;;;5032072;28;20092;-76
2024/01/20 06:00:22;;;;;;;0.10;0.10;;;;;;;;;;5048395;28;20057;-76
2024/01/20 06:02:48;;;;;;;0.10;0.10;;;;;;;;;;5047605;28;20058;-76
2024/01/20 06:05:14;;;;;;;0.10;0.10;;;;;;;;;;5049259;28;20130;-76
2024/01/20 06:07:41;;;;;;;0.10;0.10;;;;;;;;;;5030745;28;20144;-76
2024/01/20 06:10:07;;;;;;;0.10;0.10;;;;;;;;;;5047870;28;20053;-76
2024/01/20 06:12:34;;;;;;;1.13;1.13;;;;;;;;;;5048901;28;20160;-76
2024/01/20 06:15:00;;;;;;;0.10;0.10;;;;;;;;;;5048259;28;20054;-76
2024/01/20 06:17:27;;;;;;;2.58;2.47;;;;;;;;;;5047911;28;20558;-76
2024/01/20 06:19:54;;;;;;;0.10;0.10;;;;;;;;;;5046699;28;20065;-76
2024/01/20 06:22:21;;;;;;;1.45;0.90;;;;;;;;;;5048625;28;20085;-76
2024/01/20 06:24:47;;;;;;;0.10;0.10;;;;;;;;;;5048614;28;20173;-76
2024/01/20 06:27:14;;;;;;;0.75;0.75;;;;;;;;;;5047821;28;20057;-76
2024/01/20 06:29:41;;;;;;;0.10;0.10;;;;;;;;;;5047585;28;20053;-76
2024/01/20 06:32:07;;;;;;;0.10;0.10;;;;;;;;;;5048068;28;20072;-76
2024/01/20 06:34:34;;;;;;;0.10;0.10;;;;;;;;;;5046968;28;20054;-76
2024/01/20 06:37:00;;;;;;;1.45;1.20;;;;;;;;;;5046775;28;20439;-76
2024/01/20 06:39:27;;;;;;;0.10;0.10;;;;;;;;;;5047941;28;20125;-76
2024/01/20 06:41:53;;;;;;;0.10;0.10;;;;;;;;;;5047508;28;20156;-76
2024/01/20 06:44:22;;;;;;;0.10;0.10;;;;;;;;;;5033250;28;20049;-76
2024/01/20 06:46:48;;;;;;;0.10;0.10;;;;;;;;;;5042437;28;20107;-76
2024/01/20 06:49:15;;;;;;;0.08;0.08;;;;;;;;;;5043296;28;20597;-76
2024/01/20 06:51:44;;;;;;;0.10;0.10;;;;;;;;;;5039533;28;20107;-75
2024/01/20 06:54:11;;;;;;;0.05;0.05;;;;;;;;;;5042908;28;20057;-75
2024/01/20 06:56:37;;;;;;;0.10;0.10;;;;;;;;;;5046140;28;20060;-76
2024/01/20 06:59:04;;;;;;;0.10;0.10;;;;;;;;;;5046958;28;20141;-76
2024/01/20 07:01:31;;;;;;;0.10;0.10;;;;;;;;;;5046104;28;20687;-76
2024/01/20 07:03:57;;;;;;;0.10;0.10;;;;;;;;;;5044087;28;20050;-76
2024/01/20 07:06:24;;;;;;;0.10;0.10;;;;;;;;;;5042864;28;20059;-76
2024/01/20 07:08:51;;;;;;;0.10;0.10;;;;;;;;;;5047710;28;20726;-76
2024/01/20 07:11:17;;;;;;;0.10;0.10;;;;;;;;;;5043532;28;20057;-75
2024/01/20 07:13:44;;;;;;;0.10;0.10;;;;;;;;;;5047490;28;20053;-76
2024/01/20 07:16:11;;;;;;;0.10;0.10;;;;;;;;;;5047125;28;20053;-76
2024/01/20 07:18:38;;;;;;;0.10;0.10;;;;;;;;;;5045010;28;20179;-76
2024/01/20 07:21:05;;;;;;;0.10;0.10;;;;;;;;;;5047529;28;20061;-76
2024/01/20 07:23:31;;;;;;;0.10;0.10;;;;;;;;;;5045652;28;20065;-76
2024/01/20 07:25:58;;;;;;;0.10;0.10;;;;;;;;;;5045044;28;20104;-76
2024/01/20 07:28:25;;;;;;;0.10;0.10;;;;;;;;;;5045455;28;20053;-76
2024/01/20 07:30:51;;;;;;;0.10;0.10;;;;;;;;;;5046758;28;20145;-76
2024/01/20 07:33:18;;;;;;;0.10;0.10;;;;;;;;;;5047682;28;20057;-76
2024/01/20 07:35:44;;;;;;;3.17;2.95;;;;;;;;;;5044765;28;20053;-76
2024/01/20 07:38:11;;;;;;;0.28;0.28;;;;;;;;;;5033281;28;20054;-76
2024/01/20 07:40:37;;;;;;;0.10;0.10;;;;;;;;;;5044748;28;20056;-76
2024/01/20 07:43:04;;;;;;;0.10;0.10;;;;;;;;;;5027129;28;20049;-76
2024/01/20 07:45:31;;;;;;;0.10;0.10;;;;;;;;;;5041248;28;20083;-75
2024/01/20 07:48:00;;;;;;;0.68;0.68;;;;;;;;;;5035818;28;20049;-76
2024/01/20 07:50:27;;;;;;;0.10;0.10;;;;;;;;;;5034157;28;20487;-75
2024/01/20 07:52:53;;;;;;;0.10;0.10;;;;;;;;;;5042576;28;20057;-76
2024/01/20 07:55:20;;;;;;;0.10;0.10;;;;;;;;;;5034363;28;20254;-76
2024/01/20 07:57:47;;;;;;;0.10;0.10;;;;;;;;;;5042804;28;20056;-76
2024/01/20 08:00:16;;;;;;;0.10;0.10;;;;;;;;;;5046657;28;20060;-76
2024/01/20 08:02:42;;;;;;;0.10;0.10;;;;;;;;;;5130515;22;20056;-79
2024/01/20 08:05:09;;;;;;;0.10;0.10;;;;;;;;;;5061315;28;20053;-78
2024/01/20 08:07:35;;;;;;;0.10;0.10;;;;;;;;;;5071687;28;20053;-78
2024/01/20 08:10:02;;;;;;;0.10;0.10;;;;;;;;;;5056417;28;20136;-78
2024/01/20 08:12:28;;;;;;;0.10;0.10;;;;;;;;;;5042753;28;20052;-78
2024/01/20 08:14:55;;;;;;;0.10;0.10;;;;;;;;;;5034500;28;20068;-79
2024/01/20 08:17:22;;;;;;;0.10;0.10;;;;;;;;;;5052494;28;20539;-79
2024/01/20 08:19:49;;;;;;;0.20;0.20;;;;;;;;;;5044953;28;20057;-78
2024/01/20 08:22:16;;;;;;;0.10;0.10;;;;;;;;;;5039073;28;20060;-79
2024/01/20 08:24:42;;;;;;;0.10;0.10;;;;;;;;;;5062367;28;20049;-79
2024/01/20 08:27:08;;;;;;;0.10;0.10;;;;;;;;;;5048592;28;20112;-79
2024/01/20 08:29:35;;;;;;;0.10;0.10;;;;;;;;;;5058788;28;20057;-79
2024/01/20 08:32:02;;;;;;;0.10;0.10;;;;;;;;;;5032738;28;21316;-79
2024/01/20 08:34:28;;;;;;;0.38;0.38;;;;;;;;;;5065754;28;20053;-79
2024/01/20 08:36:55;;;;;;;0.10;0.10;;;;;;;;;;5034359;28;20096;-79
2024/01/20 08:39:21;;;;;;;0.10;0.10;;;;;;;;;;5053568;28;20053;-79
2024/01/20 08:41:48;;;;;;;0.10;0.10;;;;;;;;;;5046410;28;20115;-79
2024/01/20 08:44:14;;;;;;;0.10;0.10;;;;;;;;;;5050337;28;20131;-79
2024/01/20 08:46:41;;;;;;;0.10;0.10;;;;;;;;;;5051034;28;20092;-79
2024/01/20 08:49:07;;;;;;;0.85;0.85;;;;;;;;;;5051602;28;20065;-79
2024/01/20 08:51:34;;;;;;;0.10;0.10;;;;;;;;;;5036510;28;20053;-79
2024/01/20 08:54:01;;;;;;;0.20;0.20;;;;;;;;;;5052163;28;20053;-78
2024/01/20 08:56:30;;;;;;;0.03;0.03;;;;;;;;;;5050149;28;20136;-79
2024/01/20 08:58:58;;;;;;;0.10;0.10;;;;;;;;;;5037735;28;20137;-79
2024/01/20 09:01:24;;;;;;;0.10;0.10;;;;;;;;;;5043515;28;20065;-79
2024/01/20 09:03:51;;;;;;;0.10;0.10;;;;;;;;;;5039669;28;20056;-79
2024/01/20 09:06:22;;;;;;;1.85;1.75;;;;;;;;;;5053816;28;21000;-79
2024/01/20 09:08:48;;;;;;;0.00;0.00;;;;;;;;;;5043842;28;20056;-79
2024/01/20 09:11:14;;;;;;;0.10;0.10;;;;;;;;;;5068983;28;20099;-79
2024/01/20 09:13:41;;;;;;;0.00;0.00;;;;;;;;;;5060795;28;20136;-78
2024/01/20 09:16:09;;;;;;;0.90;0.90;;;;;;;;;;5036693;28;20053;-78
2024/01/20 09:18:35;;;;;;;0.10;0.10;;;;;;;;;;5060889;28;20069;-78
2024/01/20 09:21:02;;;;;;;0.10;0.10;;;;;;;;;;5053177;28;20054;-79
2024/01/20 09:23:29;;;;;;;0.10;0.10;;;;;;;;;;5043700;28;20244;-78
2024/01/20 09:25:55;;;;;;;0.15;0.15;;;;;;;;;;5060090;28;20057;-79
2024/01/20 09:28:22;;;;;;;0.10;0.10;;;;;;;;;;5056401;28;20232;-79
2024/01/20 09:30:48;;;;;;;0.10;0.10;;;;;;;;;;5064991;28;20045;-79
2024/01/20 09:33:15;;;;;;;0.10;0.10;;;;;;;;;;5037277;28;20566;-79
2024/01/20 09:35:43;;;;;;;0.20;0.20;;;;;;;;;;5058064;28;20089;-78
2024/01/20 09:38:09;;;;;;;0.10;0.10;;;;;;;;;;5037923;28;20061;-79
2024/01/20 09:40:36;;;;;;;0.10;0.10;;;;;;;;;;5054494;28;20057;-79
2024/01/20 09:43:04;;;;;;;0.10;0.10;;;;;;;;;;5048617;28;20168;-79
2024/01/20 09:45:31;;;;;;;0.10;0.10;;;;;;;;;;5047356;28;20080;-78
2024/01/20 09:48:00;;;;;;;0.30;0.30;;;;;;;;;;5064946;28;20087;-79
2024/01/20 09:50:27;;;;;;;0.10;0.10;;;;;;;;;;5070354;28;20049;-80
2024/01/20 09:52:58;;;;;;;0.10;0.10;;;;;;;;;;5052659;28;20592;-79
2024/01/20 09:55:26;;;;;;;0.10;0.10;;;;;;;;;;5075478;28;20068;-79
2024/01/20 09:57:54;;;;;;;0.10;0.10;;;;;;;;;;5048661;28;20045;-79
2024/01/20 10:00:21;;;;;;;0.10;0.10;;;;;;;;;;5054237;28;20060;-80
2024/01/20 10:02:47;;;;;;;0.28;0.25;;;;;;;;;;5043103;28;20057;-79
2024/01/20 10:05:14;;;;;;;0.10;0.10;;;;;;;;;;5044310;28;20057;-79
2024/01/20 10:07:41;;;;;;;0.13;0.13;;;;;;;;;;5064815;28;20052;-80
2024/01/20 10:10:09;;;;;;;0.10;0.10;;;;;;;;;;5062760;28;20127;-79
2024/01/20 10:12:36;;;;;;;0.17;0.17;;;;;;;;;;5066445;28;20630;-79
2024/01/20 10:15:03;;;;;;;0.20;0.20;;;;;;;;;;5062496;28;20153;-80
2024/01/20 10:17:35;;;;;;;0.10;0.10;;;;;;;;;;5064889;28;20064;-80
2024/01/20 10:20:02;;;;;;;0.10;0.10;;;;;;;;;;5047408;28;20053;-79
2024/01/20 10:22:29;;;;;;;0.08;0.08;;;;;;;;;;5062452;28;20093;-79
2024/01/20 10:24:55;;;;;;;0.10;0.10;;;;;;;;;;5047917;28;20064;-79
2024/01/20 10:27:23;;;;;;;0.10;0.10;;;;;;;;;;5049791;28;20053;-79
2024/01/20 10:29:50;;;;;;;0.10;0.10;;;;;;;;;;5053134;28;20057;-79
2024/01/20 10:32:17;;;;;;;0.10;0.10;;;;;;;;;;5048664;28;20136;-79
2024/01/20 10:34:44;;;;;;;0.17;0.17;;;;;;;;;;5041422;28;20061;-80
2024/01/20 10:37:14;;;;;;;0.10;0.10;;;;;;;;;;5040582;28;20060;-80
2024/01/20 10:39:42;;;;;;;0.10;0.10;;;;;;;;;;5050296;28;20103;-78
2024/01/20 10:42:10;;;;;;;0.22;0.20;;;;;;;;;;5038120;28;20047;-80
2024/01/20 10:44:38;;;;;;;0.10;0.10;;;;;;;;;;5067257;28;20051;-81
2024/01/20 10:47:06;;;;;;;0.20;0.20;;;;;;;;;;5054642;28;20122;-79
2024/01/20 10:49:33;;;;;;;0.10;0.10;;;;;;;;;;5037111;28;20042;-79
2024/01/20 10:52:00;;;;;;;0.10;0.10;;;;;;;;;;5046785;28;20042;-80
2024/01/20 10:54:30;;;;;;;0.10;0.10;;;;;;;;;;5045052;28;20053;-79
2024/01/20 10:57:00;;;;;;;0.10;0.10;;;;;;;;;;5043624;28;20053;-79
2024/01/20 10:59:27;;;;;;;0.10;0.10;;;;;;;;;;5056622;28;20057;-82
2024/01/20 11:01:54;;;;;;;0.10;0.10;;;;;;;;;;5048976;28;20550;-79
2024/01/20 11:04:20;;;;;;;0.10;0.10;;;;;;;;;;5052146;28;20044;-80
2024/01/20 11:06:47;;;;;;;2.30;1.73;;;;;;;;;;5046846;28;20057;-79
2024/01/20 11:09:21;;;;;;;5.53;4.50;;;;;;;;;;5060040;28;20990;-79
2024/01/20 11:12:01;;;;;;;0.10;0.10;;;;;;;;;;5037975;28;20097;-81
2024/01/20 11:14:29;;;;;;;1.33;1.33;;;;;;;;;;5067114;28;20056;-80
2024/01/20 11:16:56;;;;;;;0.10;0.10;;;;;;;;;;5065636;28;20520;-80
2024/01/20 11:19:28;;;;;;;0.65;0.65;;;;;;;;;;5045092;28;20572;-80
2024/01/20 11:21:54;;;;;;;0.10;0.10;;;;;;;;;;5063313;28;20181;-81
2024/01/20 11:24:35;;;;;;;0.10;0.10;;;;;;;;;;5042879;28;20055;-81
2024/01/20 11:27:02;;;;;;;0.35;0.35;;;;;;;;;;5045108;28;20057;-83
2024/01/20 11:29:28;;;;;;;0.10;0.10;;;;;;;;;;5064587;28;20515;-81
2024/01/20 11:31:58;;;;;;;0.10;0.10;;;;;;;;;;5073648;28;20143;-81
2024/01/20 11:34:24;;;;;;;0.10;0.10;;;;;;;;;;5049955;28;20167;-82
2024/01/20 11:36:52;;;;;;;0.10;0.10;;;;;;;;;;5052173;28;20527;-81
2024/01/20 11:39:21;;;;;;;0.10;0.10;;;;;;;;;;5045731;28;20057;-82
2024/01/20 11:41:57;;;;;;;1.13;1.13;;;;;;;;;;5054289;28;20057;-81
2024/01/20 11:44:25;;;;;;;0.10;0.10;;;;;;;;;;5049806;28;20127;-81
2024/01/20 11:46:51;;;;;;;0.10;0.10;;;;;;;;;;5063823;28;20049;-80
2024/01/20 11:49:17;;;;;;;0.10;0.10;;;;;;;;;;5048221;28;20129;-81
2024/01/20 11:51:44;;;;;;;0.10;0.10;;;;;;;;;;5048160;28;20104;-81
2024/01/20 11:54:11;;;;;;;0.10;0.10;;;;;;;;;;5044147;28;20058;-81
2024/01/20 11:56:37;;;;;;;0.00;0.00;;;;;;;;;;5044717;28;20043;-82
2024/01/20 11:59:05;;;;;;;0.25;0.22;;;;;;;;;;5049065;28;20151;-81
2024/01/20 12:01:31;;;;;;;1.02;1.02;;;;;;;;;;5045144;28;20511;-80
2024/01/20 12:04:00;;;;;;;0.10;0.10;;;;;;;;;;5034324;28;20063;-81
2024/01/20 12:06:26;;;;;;;0.10;0.10;;;;;;;;;;5061846;28;20057;-81
2024/01/20 12:08:55;;;;;;;0.15;0.15;;;;;;;;;;5044382;28;20053;-81
2024/01/20 12:11:22;;;;;;;0.10;0.10;;;;;;;;;;5044028;28;20053;-81
2024/01/20 12:13:49;;;;;;;0.10;0.10;;;;;;;;;;5063519;28;20064;-81
2024/01/20 12:16:16;;;;;;;0.10;0.10;;;;;;;;;;5061478;28;20119;-81
2024/01/20 12:18:42;;;;;;;0.20;0.20;;;;;;;;;;5041157;28;20131;-81
2024/01/20 12:21:09;;;;;;;0.10;0.10;;;;;;;;;;5047867;28;20138;-81
2024/01/20 12:23:36;;;;;;;5.78;1.75;;;;;;;;;;5066871;28;20088;-81
2024/01/20 12:26:10;;;;;;;0.10;0.10;;;;;;;;;;5065331;28;20037;-81
2024/01/20 12:28:38;;;;;;;0.10;0.10;;;;;;;;;;5063406;28;20056;-81
2024/01/20 12:31:05;;;;;;;0.10;0.10;;;;;;;;;;5044332;28;20088;-81
2024/01/20 12:33:31;;;;;;;0.10;0.10;;;;;;;;;;5046458;28;20061;-81
2024/01/20 12:35:58;;;;;;;0.10;0.10;;;;;;;;;;5039850;28;20033;-82
2024/01/20 12:38:24;;;;;;;0.30;0.30;;;;;;;;;;5047743;28;20877;-82
2024/01/20 12:40:51;;;;;;;0.57;0.57;;;;;;;;;;5065951;28;20111;-81
2024/01/20 12:43:18;;;;;;;0.10;0.10;;;;;;;;;;5060696;28;21278;-82
2024/01/20 12:45:44;;;;;;;0.10;0.10;;;;;;;;;;5046896;28;20064;-82
2024/01/20 12:48:11;;;;;;;0.45;0.40;;;;;;;;;;5069151;28;20177;-81
2024/01/20 12:50:37;;;;;;;0.10;0.10;;;;;;;;;;5051541;28;20060;-81
2024/01/20 12:53:04;;;;;;;1.05;1.00;;;;;;;;;;5064991;28;20223;-81
2024/01/20 12:55:30;;;;;;;0.20;0.20;;;;;;;;;;5045123;28;20092;-81
2024/01/20 12:57:59;;;;;;;0.10;0.10;;;;;;;;;;5063234;28;20103;-81
2024/01/20 13:00:26;;;;;;;0.10;0.10;;;;;;;;;;5062220;28;20057;-81
2024/01/20 13:02:55;;;;;;;0.10;0.10;;;;;;;;;;5052530;28;20041;-82
2024/01/20 13:05:21;;;;;;;0.10;0.10;;;;;;;;;;5044817;28;20104;-82
2024/01/20 13:07:48;;;;;;;3.95;2.72;;;;;;;;;;5064026;28;20056;-82
2024/01/20 13:10:14;;;;;;;0.55;0.55;;;;;;;;;;5068620;28;20045;-81
2024/01/20 13:12:41;;;;;;;0.35;0.35;;;;;;;;;;5042999;28;20050;-81
2024/01/20 13:15:08;;;;;;;0.30;0.30;;;;;;;;;;5059039;28;20153;-81
2024/01/20 13:17:35;;;;;;;0.30;0.30;;;;;;;;;;5057677;28;20068;-81
2024/01/20 13:20:02;;;;;;;0.10;0.10;;;;;;;;;;5054098;28;20061;-81
2024/01/20 13:22:28;;;;;;;0.13;0.13;;;;;;;;;;5050813;28;20136;-81
2024/01/20 13:24:57;;;;;;;0.10;0.10;;;;;;;;;;5056294;28;21957;-82
2024/01/20 13:27:24;;;;;;;0.10;0.10;;;;;;;;;;5067303;28;20081;-81
2024/01/20 13:29:50;;;;;;;0.00;0.00;;;;;;;;;;5036924;28;20447;-81
2024/01/20 13:32:17;;;;;;;0.10;0.10;;;;;;;;;;5052541;28;20064;-81
2024/01/20 13:34:43;;;;;;;0.10;0.10;;;;;;;;;;5049668;28;20515;-82
2024/01/20 13:37:10;;;;;;;1.02;0.93;;;;;;;;;;5060868;28;20057;-81
2024/01/20 13:39:37;;;;;;;0.40;0.40;;;;;;;;;;5050409;28;20064;-81
2024/01/20 13:42:04;;;;;;;0.10;0.10;;;;;;;;;;5071293;28;20056;-82
2024/01/20 13:44:30;;;;;;;0.10;0.10;;;;;;;;;;5045109;28;20105;-81
2024/01/20 13:47:01;;;;;;;0.65;0.65;;;;;;;;;;5046584;28;20060;-80
2024/01/20 13:49:27;;;;;;;0.10;0.10;;;;;;;;;;5073165;28;20060;-80
2024/01/20 13:51:54;;;;;;;0.10;0.10;;;;;;;;;;5057790;28;20140;-81
2024/01/20 13:54:20;;;;;;;0.82;0.82;;;;;;;;;;5056542;28;20068;-81
2024/01/20 13:56:48;;;;;;;0.10;0.10;;;;;;;;;;5068407;28;20487;-80
2024/01/20 13:59:14;;;;;;;0.10;0.10;;;;;;;;;;5049128;28;20446;-80
2024/01/20 14:01:42;;;;;;;0.10;0.10;;;;;;;;;;5065760;28;20045;-80
2024/01/20 14:04:09;;;;;;;0.10;0.10;;;;;;;;;;5050706;28;20060;-81
2024/01/20 14:06:35;;;;;;;0.10;0.10;;;;;;;;;;5152635;22;20052;-80
2024/01/20 14:09:04;;;;;;;0.10;0.10;;;;;;;;;;5089549;28;20059;-79
2024/01/20 14:11:30;;;;;;;0.10;0.10;;;;;;;;;;5079734;28;20060;-80
2024/01/20 14:13:56;;;;;;;0.10;0.10;;;;;;;;;;5069974;28;20057;-80
2024/01/20 14:16:23;;;;;;;0.13;0.13;;;;;;;;;;5069686;28;20529;-80
2024/01/20 14:18:49;;;;;;;0.10;0.10;;;;;;;;;;5069800;28;20057;-80
2024/01/20 14:21:16;;;;;;;0.10;0.10;;;;;;;;;;5068690;28;20144;-80
2024/01/20 14:23:43;;;;;;;0.10;0.10;;;;;;;;;;5060361;28;20053;-80
2024/01/20 14:26:09;;;;;;;0.10;0.10;;;;;;;;;;5050853;28;20069;-80
2024/01/20 14:28:36;;;;;;;0.20;0.20;;;;;;;;;;5069844;28;20061;-80
2024/01/20 14:31:02;;;;;;;0.10;0.10;;;;;;;;;;5061745;28;20107;-80
2024/01/20 14:33:29;;;;;;;0.38;0.38;;;;;;;;;;5054997;28;20057;-80
2024/01/20 14:35:55;;;;;;;0.10;0.10;;;;;;;;;;5069574;28;20049;-80
2024/01/20 14:38:22;;;;;;;0.10;0.10;;;;;;;;;;5069532;28;20102;-80
2024/01/20 14:40:49;;;;;;;0.10;0.10;;;;;;;;;;5068997;28;20540;-80